Brunswick, Maine
Current Conditions -  °F | °C
As of 6:53 AM on Sunday 23 Nov 2014 (Local Time) from KIWI Reporting Station
Scattered Clouds Scattered Clouds  
Wind Chill: 32°   Ceiling: Unl
Heat Index: 32°   Visibility: 10mi
Dew Point: 28°   Wind: 0mph
Humidity: 85%   Direction: NA
Pressure: 30.03"   Gusts: NA
Location:  43.92°N, 69.96°W
Report Text: KIWI 231153Z AUTO 00000KT 10SM FEW080 SCT100 00/M02 A3003 RMK AO2 SLP168 60000 T00001022 10044 21006 53018
Loading
Personal Weather Stations






























Interactive Weather Map New forecast layout! Learn more

10-Day Weather Forecast

Advertisements
Track Severe Weather on mobile